Time;durP1;ratioP1;P1;durP2;ratioP2;P2;SDS_P1;SDS_P2;PMS_P1;PMS_P2;Temp;Humidity;BMP_temperature;BMP_pressure;BME280_temperature;BME280_humidity;BME280_pressure;Samples;Min_cycle;Max_cycle;Signal;HPM_P1;HPM_P2
2022/10/18 04:31:34;;;;;;;;;27.00;25.00;;;;;17.48;78.85;102275.88;5447510;22;45685;-60
2022/10/18 04:33:59;;;;;;;;;28.33;25.00;;;;;17.42;79.06;102272.69;4989778;28;46221;-61
2022/10/18 04:36:24;;;;;;;;;27.33;24.67;;;;;17.35;79.08;102269.44;5010264;28;60524;-61
2022/10/18 04:38:50;;;;;;;;;18.67;17.00;;;;;17.31;79.11;102271.44;5004411;28;61828;-61
2022/10/18 04:41:15;;;;;;;;;24.33;23.33;;;;;17.26;79.30;102280.69;4973223;28;65629;-61
2022/10/18 04:43:40;;;;;;;;;31.00;29.67;;;;;17.20;79.25;102279.22;5001894;28;45773;-61
2022/10/18 04:46:06;;;;;;;;;24.33;21.33;;;;;17.15;79.13;102286.69;4979624;28;45378;-61
2022/10/18 04:48:31;;;;;;;;;27.00;24.33;;;;;17.10;79.48;102288.75;4991976;28;65750;-61
2022/10/18 04:50:57;;;;;;;;;29.33;24.67;;;;;17.09;79.66;102287.00;4971743;28;45783;-61
2022/10/18 04:53:22;;;;;;;;;25.67;24.33;;;;;17.09;79.71;102289.69;4978229;28;46515;-61
2022/10/18 04:55:48;;;;;;;;;29.67;28.00;;;;;17.11;79.79;102290.50;4975502;28;69278;-61
2022/10/18 04:58:15;;;;;;;;;24.33;24.33;;;;;17.11;79.63;102291.34;4987652;28;45551;-61
2022/10/18 05:00:41;;;;;;;;;31.00;24.33;;;;;17.11;79.58;102294.03;4987885;28;47242;-61
2022/10/18 05:03:07;;;;;;;;;30.67;27.67;;;;;17.09;79.75;102295.06;4992883;28;46006;-61
2022/10/18 05:05:32;;;;;;;;;23.67;21.67;;;;;17.06;80.08;102295.25;4992510;28;45553;-61
2022/10/18 05:07:58;;;;;;;;;23.67;21.33;;;;;17.01;80.03;102298.16;4998967;28;52486;-61
2022/10/18 05:10:23;;;;;;;;;30.67;29.00;;;;;16.97;80.07;102300.16;4998376;28;45447;-61
2022/10/18 05:12:48;;;;;;;;;28.00;27.67;;;;;16.97;80.23;102304.66;4988972;28;75373;-61
2022/10/18 05:15:14;;;;;;;;;25.67;22.67;;;;;16.97;80.14;102300.16;4999397;28;64748;-61
2022/10/18 05:17:39;;;;;;;;;22.00;20.33;;;;;16.97;80.11;102308.22;4994111;28;66864;-61
2022/10/18 05:20:05;;;;;;;;;29.67;25.00;;;;;16.98;80.02;102311.78;4986380;28;45475;-62
2022/10/18 05:22:30;;;;;;;;;24.33;19.00;;;;;17.00;80.09;102305.38;4978279;28;47132;-62
2022/10/18 05:24:55;;;;;;;;;20.67;20.00;;;;;17.00;80.01;102307.16;4997924;28;64381;-62
2022/10/18 05:27:21;;;;;;;;;23.00;22.00;;;;;17.00;79.85;102304.47;5008732;28;45684;-63
2022/10/18 05:29:46;;;;;;;;;24.33;24.33;;;;;17.02;80.30;102307.97;5009094;28;65586;-63
2022/10/18 05:32:11;;;;;;;;;23.00;21.67;;;;;17.03;80.00;102305.19;5000887;28;45969;-62
2022/10/18 05:34:37;;;;;;;;;19.67;19.67;;;;;17.07;80.13;102299.69;5005439;28;45432;-62
2022/10/18 05:37:02;;;;;;;;;24.67;21.67;;;;;17.10;80.06;102299.50;4990056;28;63558;-61
2022/10/18 05:39:27;;;;;;;;;24.00;21.00;;;;;17.14;79.95;102298.38;4990233;28;66446;-61
2022/10/18 05:41:53;;;;;;;;;28.33;24.67;;;;;17.17;79.91;102301.78;4975835;28;45924;-62
2022/10/18 05:44:18;;;;;;;;;23.00;21.00;;;;;17.22;79.78;102296.13;5002067;28;45219;-63
2022/10/18 05:46:44;;;;;;;;;23.33;20.33;;;;;17.26;79.66;102300.41;4999266;28;45495;-63
2022/10/18 05:49:12;;;;;;;;;21.33;19.33;;;;;17.27;79.72;102301.28;4993364;28;65350;-63
2022/10/18 05:51:37;;;;;;;;;17.67;17.67;;;;;17.30;79.65;102309.16;4995331;28;45526;-61
2022/10/18 05:54:03;;;;;;;;;22.33;20.33;;;;;17.34;79.52;102308.06;4995376;28;64801;-61
2022/10/18 05:56:28;;;;;;;;;23.67;22.00;;;;;17.37;79.32;102310.56;5001437;28;66043;-63
2022/10/18 05:58:53;;;;;;;;;16.33;16.33;;;;;17.40;79.25;102310.38;5015538;28;50967;-61
2022/10/18 06:01:19;;;;;;;;;21.67;19.33;;;;;17.44;79.52;102314.69;4988605;28;45408;-61
2022/10/18 06:03:44;;;;;;;;;23.67;17.00;;;;;17.49;79.42;102325.16;4997544;28;68721;-62
2022/10/18 06:06:11;;;;;;;;;21.33;18.67;;;;;17.51;79.08;102310.69;4974549;28;60739;-62
2022/10/18 06:08:37;;;;;;;;;19.67;19.67;;;;;17.56;79.33;102320.31;5016811;28;45439;-62
2022/10/18 06:11:11;;;;;;;;;20.00;18.00;;;;;17.58;79.14;102313.03;5006033;28;46458;-62
2022/10/18 06:13:47;;;;;;;;;17.67;17.67;;;;;17.60;79.13;102311.09;5016029;28;45261;-62
2022/10/18 06:16:15;;;;;;;;;20.00;19.33;;;;;17.62;78.75;102311.91;5003707;28;45381;-62
2022/10/18 06:18:41;;;;;;;;;24.00;18.33;;;;;17.63;78.84;102317.19;4991124;28;45532;-62
2022/10/18 06:21:06;;;;;;;;;22.33;18.00;;;;;17.63;78.60;102324.41;4997423;28;52571;-62
2022/10/18 06:23:32;;;;;;;;;23.67;20.00;;;;;17.64;78.68;102329.69;5001773;28;45670;-62
2022/10/18 06:26:03;;;;;;;;;19.33;17.00;;;;;17.66;78.69;102332.28;4989627;28;45486;-62
2022/10/18 06:28:28;;;;;;;;;19.33;18.00;;;;;17.67;78.77;102332.19;4974165;28;45679;-62
2022/10/18 06:30:55;;;;;;;;;19.33;17.67;;;;;17.69;78.85;102332.09;4989271;28;45491;-62
2022/10/18 06:33:20;;;;;;;;;17.00;15.67;;;;;17.73;78.30;102332.81;4995198;28;45463;-62
2022/10/18 06:36:20;;;;;;;;;18.67;17.67;;;;;17.77;78.56;102337.94;5007305;28;60141;-62
2022/10/18 06:38:46;;;;;;;;;18.33;15.33;;;;;17.82;78.36;102334.97;4983835;28;45452;-62
2022/10/18 06:41:11;;;;;;;;;17.00;15.67;;;;;17.83;78.26;102347.50;4987405;28;46051;-62
2022/10/18 06:43:37;;;;;;;;;20.67;17.00;;;;;17.86;77.96;102345.50;5002406;28;45733;-62
2022/10/18 06:46:05;;;;;;;;;18.33;16.33;;;;;17.90;78.13;102353.38;4976625;28;51110;-62
2022/10/18 06:48:31;;;;;;;;;20.67;18.00;;;;;17.94;77.94;102346.91;4989007;28;45360;-62
2022/10/18 06:50:58;;;;;;;;;20.33;18.00;;;;;17.94;77.85;102350.47;5006092;28;45474;-61
2022/10/18 06:53:25;;;;;;;;;15.33;15.00;;;;;17.96;77.99;102353.94;5001185;28;45861;-62
2022/10/18 06:55:51;;;;;;;;;18.00;16.00;;;;;17.98;77.45;102352.03;4999863;28;45508;-61
2022/10/18 06:58:16;;;;;;;;;16.33;14.67;;;;;17.99;77.63;102356.47;4996411;28;45545;-61
2022/10/18 07:00:41;;;;;;;;;17.67;15.67;;;;;18.03;77.82;102354.47;4995462;28;53291;-61
2022/10/18 07:03:07;;;;;;;;;16.33;16.33;;;;;18.08;77.73;102360.47;4995312;28;52361;-62
2022/10/18 07:05:32;;;;;;;;;16.33;15.00;;;;;18.12;77.50;102361.13;5006761;28;45448;-61
2022/10/18 07:07:57;;;;;;;;;19.00;18.00;;;;;18.17;77.40;102356.34;4996957;28;62428;-61
2022/10/18 07:10:23;;;;;;;;;16.00;16.00;;;;;18.24;77.38;102357.75;4993897;28;72096;-62
2022/10/18 07:12:49;;;;;;;;;17.00;16.00;;;;;18.31;76.73;102353.72;5000043;28;45490;-62
2022/10/18 07:15:14;;;;;;;;;20.33;13.67;;;;;18.40;76.79;102364.94;5003625;28;59490;-62
2022/10/18 07:17:40;;;;;;;;;18.00;17.33;;;;;18.47;76.88;102363.59;5000096;28;65346;-62
2022/10/18 07:20:06;;;;;;;;;16.00;16.00;;;;;18.57;76.63;102369.34;4989369;28;46077;-62
2022/10/18 07:22:32;;;;;;;;;18.67;15.00;;;;;18.67;76.50;102371.38;4972723;28;45635;-62
2022/10/18 07:24:58;;;;;;;;;20.33;16.00;;;;;18.80;76.16;102376.91;4999026;28;45412;-62
2022/10/18 07:27:23;;;;;;;;;17.00;16.00;;;;;18.93;75.57;102376.19;5003416;28;45550;-62
2022/10/18 07:29:48;;;;;;;;;21.00;16.67;;;;;19.08;76.03;102385.19;4990182;28;73424;-62
2022/10/18 07:32:14;;;;;;;;;17.00;16.67;;;;;19.21;75.68;102382.59;4988865;28;45483;-62
2022/10/18 07:34:39;;;;;;;;;17.67;15.00;;;;;19.36;75.08;102378.06;4994821;28;46057;-62
2022/10/18 07:37:04;;;;;;;;;13.33;13.33;;;;;19.49;74.75;102379.06;4998478;28;63138;-62
2022/10/18 07:39:30;;;;;;;;;16.00;14.67;;;;;19.52;74.53;102386.94;4998104;28;66000;-62
2022/10/18 07:41:56;;;;;;;;;17.00;15.00;;;;;19.48;73.89;102388.97;4986106;28;55402;-62
2022/10/18 07:44:21;;;;;;;;;14.67;14.67;;;;;19.43;73.99;102391.09;5000534;28;45500;-62
2022/10/18 07:46:47;;;;;;;;;19.67;15.00;;;;;19.42;73.82;102392.03;5002696;28;63235;-62
2022/10/18 07:49:12;;;;;;;;;13.67;13.67;;;;;19.44;73.74;102398.22;4989671;28;63079;-62
2022/10/18 07:51:37;;;;;;;;;12.67;12.67;;;;;19.42;74.11;102397.44;4994888;28;66952;-62
2022/10/18 07:54:03;;;;;;;;;15.00;13.33;;;;;19.44;73.64;102397.38;4998873;28;45437;-62
2022/10/18 07:56:28;;;;;;;;;15.33;14.33;;;;;19.47;73.70;102400.72;4999877;28;45274;-62
2022/10/18 07:58:55;;;;;;;;;21.33;16.33;;;;;19.51;73.85;102402.25;4998663;28;70298;-61
2022/10/18 08:01:21;;;;;;;;;11.33;11.33;;;;;19.51;73.84;102404.09;4989006;28;45488;-61
2022/10/18 08:03:47;;;;;;;;;18.00;15.00;;;;;19.48;73.71;102407.00;4979660;28;46792;-62
2022/10/18 08:06:15;;;;;;;;;15.00;14.67;;;;;19.50;73.69;102411.34;4965709;28;45553;-61
2022/10/18 08:08:41;;;;;;;;;14.33;14.00;;;;;19.59;73.11;102411.72;4995876;28;46407;-62
2022/10/18 08:11:26;;;;;;;;;18.33;17.00;;;;;19.66;73.37;102419.31;4985493;28;45466;-62
2022/10/18 08:13:52;;;;;;;;;17.67;15.00;;;;;19.72;73.52;102426.16;5002398;28;45289;-62
2022/10/18 08:16:20;;;;;;;;;15.00;13.33;;;;;19.77;73.16;102428.56;5012743;28;45709;-62
2022/10/18 08:18:46;;;;;;;;;11.67;10.00;;;;;19.83;72.98;102429.09;5006948;28;46354;-62
2022/10/18 08:21:14;;;;;;;;;15.33;11.67;;;;;19.93;72.69;102429.38;4989528;28;45487;-62
2022/10/18 08:23:40;;;;;;;;;14.67;13.00;;;;;20.00;72.51;102432.53;5006091;28;45440;-63
2022/10/18 08:26:08;;;;;;;;;15.33;15.00;;;;;20.04;72.05;102441.28;4979060;28;45403;-62
2022/10/18 08:28:35;;;;;;;;;15.67;14.00;;;;;20.07;71.70;102447.38;4996799;28;46956;-62
2022/10/18 08:31:05;;;;;;;;;15.00;14.67;;;;;20.27;72.25;102448.78;4995902;28;45436;-62
2022/10/18 08:33:31;;;;;;;;;13.67;13.33;;;;;20.54;71.12;102444.38;5002707;28;45337;-62
2022/10/18 08:35:58;;;;;;;;;14.67;13.67;;;;;20.76;71.24;102447.38;5009132;28;45205;-62
2022/10/18 08:38:24;;;;;;;;;15.00;13.00;;;;;20.86;70.36;102447.63;5000657;28;46283;-62
2022/10/18 08:40:50;;;;;;;;;14.33;11.33;;;;;20.79;70.22;102444.50;5006679;28;63011;-62
2022/10/18 08:44:03;;;;;;;;;10.33;8.33;;;;;20.72;69.80;102440.44;5011892;28;45424;-62
2022/10/18 08:46:30;;;;;;;;;9.67;9.67;;;;;20.70;69.73;102442.38;5001005;28;45486;-62
2022/10/18 08:48:57;;;;;;;;;12.00;12.00;;;;;20.74;69.97;102446.63;4982130;28;45465;-62
2022/10/18 08:51:38;;;;;;;;;13.33;10.33;;;;;20.74;69.16;102446.63;4986115;28;45487;-62
2022/10/18 08:54:38;;;;;;;;;14.33;11.67;;;;;20.77;69.42;102448.28;5008890;28;45663;-62
2022/10/18 08:57:12;;;;;;;;;11.33;11.33;;;;;20.77;69.33;102445.56;5003481;28;45345;-62
2022/10/18 08:59:39;;;;;;;;;13.33;11.33;;;;;20.73;69.35;102438.59;4989821;28;45583;-62
2022/10/18 09:02:15;;;;;;;;;11.33;10.00;;;;;20.66;68.51;102436.31;5006776;28;45483;-62
2022/10/18 09:04:58;;;;;;;;;12.00;12.00;;;;;20.56;68.53;102434.31;4984958;28;45314;-62
2022/10/18 09:07:50;;;;;;;;;12.33;10.67;;;;;20.54;69.06;102436.25;5000653;28;45616;-62
2022/10/18 09:10:32;;;;;;;;;15.00;13.33;;;;;20.67;69.03;102434.47;5003083;28;46972;-62
2022/10/18 09:13:27;;;;;;;;;15.33;15.00;;;;;20.95;68.55;102433.47;5002528;28;45568;-62
2022/10/18 09:16:12;;;;;;;;;14.67;11.33;;;;;21.10;68.39;102439.66;5010506;28;45368;-62
2022/10/18 09:18:56;;;;;;;;;11.00;11.00;;;;;21.23;68.22;102434.28;4998021;28;45380;-62
2022/10/18 09:21:38;;;;;;;;;11.33;11.00;;;;;21.41;67.73;102433.97;4998450;28;45373;-62
2022/10/18 09:24:04;;;;;;;;;12.00;10.33;;;;;21.51;66.79;102435.06;5006783;28;45354;-62
2022/10/18 09:26:35;;;;;;;;;12.00;12.00;;;;;21.61;66.50;102440.69;4995871;28;45384;-61
2022/10/18 09:29:22;;;;;;;;;13.33;12.00;;;;;21.82;66.26;102438.28;4995111;28;45449;-62
2022/10/18 09:32:00;;;;;;;;;13.00;9.67;;;;;22.22;65.59;102445.34;4989469;28;46312;-62
2022/10/18 09:34:52;;;;;;;;;7.33;7.33;;;;;22.95;65.42;102432.66;4985119;28;45496;-62
2022/10/18 09:37:20;;;;;;;;;11.50;10.25;;;;;23.55;63.52;102435.25;4975699;28;45799;-62
2022/10/18 09:39:47;;;;;;;;;9.75;8.50;;;;;23.79;63.06;102433.28;4978058;28;45485;-62
2022/10/18 09:42:25;;;;;;;;;11.75;11.50;;;;;24.28;62.23;102436.56;4970635;28;46143;-61
2022/10/18 09:44:58;;;;;;;;;12.25;11.00;;;;;24.55;61.47;102432.53;5005139;28;45341;-61
2022/10/18 09:47:34;;;;;;;;;10.75;9.25;;;;;24.44;60.16;102438.88;4980659;28;45441;-61
2022/10/18 09:50:02;;;;;;;;;11.33;10.00;;;;;24.26;60.18;102435.84;4986377;28;45501;-63
2022/10/18 09:52:42;;;;;;;;;9.00;9.00;;;;;24.09;59.64;102436.34;4987353;28;46734;-62
2022/10/18 09:55:14;;;;;;;;;11.00;10.67;;;;;23.91;59.53;102446.88;5000058;28;45477;-63
2022/10/18 09:57:44;;;;;;;;;11.50;11.50;;;;;23.66;59.85;102440.69;4980807;28;45519;-62
2022/10/18 10:00:21;;;;;;;;;13.00;12.33;;;;;23.53;60.36;102440.81;4991344;28;45488;-62
2022/10/18 10:02:47;;;;;;;;;12.67;11.67;;;;;23.44;61.35;102446.97;5006388;28;45447;-62
2022/10/18 10:05:13;;;;;;;;;12.67;11.00;;;;;23.29;60.26;102447.19;4997844;28;69920;-62
2022/10/18 10:07:46;;;;;;;;;11.67;11.67;;;;;23.18;60.69;102443.59;4977198;28;45856;-62
2022/10/18 10:10:22;;;;;;;;;18.33;16.00;;;;;23.06;61.04;102443.53;4989338;28;45503;-62
2022/10/18 10:13:02;;;;;;;;;11.50;10.75;;;;;23.00;60.78;102448.56;4977450;28;46099;-64
2022/10/18 10:15:28;;;;;;;;;9.50;8.75;;;;;22.78;60.56;102444.81;4997516;28;45530;-62
2022/10/18 10:17:59;;;;;;;;;9.67;6.67;;;;;22.62;61.06;102445.97;5000779;28;55135;-62
2022/10/18 10:20:47;;;;;;;;;7.25;7.25;;;;;22.44;60.80;102447.34;4987048;28;45530;-61
2022/10/18 10:23:34;;;;;;;;;6.33;6.00;;;;;22.29;61.81;102449.31;4997550;28;46195;-61
2022/10/18 10:26:24;;;;;;;;;11.00;9.00;;;;;22.37;61.29;102449.66;4998234;28;45448;-63
2022/10/18 10:28:49;;;;;;;;;9.00;7.00;;;;;22.40;61.08;102451.28;4978960;28;45519;-63
2022/10/18 10:31:23;;;;;;;;;9.00;9.00;;;;;22.52;61.04;102444.06;4991938;28;45324;-63
2022/10/18 10:34:03;;;;;;;;;9.67;9.00;;;;;22.83;60.22;102448.03;4994884;28;45459;-63
2022/10/18 10:36:29;;;;;;;;;10.50;9.50;;;;;23.20;59.83;102447.91;4988795;28;45392;-63
2022/10/18 10:39:05;;;;;;;;;8.50;8.00;;;;;23.48;59.97;102444.88;5003363;28;45377;-63
2022/10/18 10:41:30;;;;;;;;;8.50;8.00;;;;;23.93;59.12;102444.91;4986519;28;45711;-63
2022/10/18 10:43:56;;;;;;;;;10.75;8.75;;;;;24.25;56.50;102447.69;4960346;28;67346;-63
2022/10/18 10:46:22;;;;;;;;;7.25;7.25;;;;;24.04;58.20;102449.47;4985756;28;69233;-63
2022/10/18 10:48:55;;;;;;;;;9.00;7.00;;;;;23.64;57.66;102441.81;4990279;28;45443;-64
2022/10/18 10:51:31;;;;;;;;;11.50;8.75;;;;;23.26;57.64;102443.88;5015071;28;45503;-63
2022/10/18 10:54:10;;;;;;;;;8.00;8.00;;;;;23.03;59.11;102445.63;4986771;28;46206;-63
2022/10/18 10:56:54;;;;;;;;;11.00;9.33;;;;;23.00;59.46;102438.59;4980774;28;45414;-63
2022/10/18 10:59:21;;;;;;;;;10.50;9.75;;;;;22.98;59.85;102440.53;4992498;28;45412;-63
2022/10/18 11:01:49;;;;;;;;;10.67;10.33;;;;;22.98;59.49;102439.69;5004528;28;45579;-63
2022/10/18 11:04:28;;;;;;;;;12.00;10.50;;;;;22.88;59.94;102434.97;4995264;28;47115;-63
2022/10/18 11:07:12;;;;;;;;;9.00;9.00;;;;;22.84;59.69;102433.50;5000763;28;45463;-63
2022/10/18 11:09:50;;;;;;;;;11.00;9.75;;;;;22.71;59.80;102428.13;5006473;28;45478;-63
2022/10/18 11:12:25;;;;;;;;;11.00;10.00;;;;;22.66;60.35;102434.88;5004661;28;45256;-62
2022/10/18 11:15:10;;;;;;;;;10.00;10.00;;;;;22.68;60.40;102428.34;4987382;28;45614;-64
2022/10/18 11:18:07;;;;;;;;;9.75;8.00;;;;;22.69;60.21;102426.53;5004162;28;45424;-62
2022/10/18 11:20:37;;;;;;;;;7.50;6.75;;;;;22.71;60.46;102419.13;4983492;28;45187;-62
2022/10/18 11:23:16;;;;;;;;;8.67;8.67;;;;;22.67;60.77;102420.34;4995194;28;45618;-62
2022/10/18 11:25:56;;;;;;;;;10.00;8.25;;;;;22.69;60.01;102421.09;5003180;28;45424;-62
2022/10/18 11:28:46;;;;;;;;;10.25;8.50;;;;;22.80;60.36;102412.97;4993699;28;45505;-62
2022/10/18 11:31:29;;;;;;;;;9.00;7.50;;;;;23.05;59.83;102417.38;4999120;28;45407;-62
2022/10/18 11:34:06;;;;;;;;;9.50;9.50;;;;;23.13;59.45;102419.50;4989950;28;46209;-63
2022/10/18 11:36:59;;;;;;;;;8.50;7.50;;;;;23.29;59.39;102420.03;5000199;28;45691;-63
2022/10/18 11:39:37;;;;;;;;;8.00;8.00;;;;;23.59;59.33;102407.72;4982794;28;45330;-63
2022/10/18 11:42:15;;;;;;;;;6.00;5.00;;;;;24.40;59.29;102398.47;5003824;28;45422;-62
2022/10/18 11:44:55;;;;;;;;;6.25;6.25;;;;;24.85;56.81;102394.69;4996652;28;45454;-62
2022/10/18 11:47:24;;;;;;;;;4.00;4.00;;;;;25.01;56.13;102394.25;4993190;28;45572;-62
2022/10/18 11:50:04;;;;;;;;;55.67;33.33;;;;;24.98;56.01;102392.66;4994596;28;45459;-63
2022/10/18 11:52:53;;;;;;;;;7.50;7.00;;;;;24.79;55.73;102387.09;4984817;28;45633;-67
2022/10/18 11:55:27;;;;;;;;;6.00;4.00;;;;;24.53;56.64;102390.16;4991987;28;45501;-66
2022/10/18 11:58:01;;;;;;;;;4.00;4.00;;;;;24.23;56.39;102383.59;5000560;28;46368;-66
2022/10/18 12:00:48;;;;;;;;;4.00;1.75;;;;;23.90;55.77;102383.53;4998492;28;45430;-67
2022/10/18 12:03:27;;;;;;;;;1.75;1.75;;;;;23.59;57.15;102372.41;4979899;28;45353;-67
2022/10/18 12:05:55;;;;;;;;;2.00;2.00;;;;;23.34;57.20;102378.97;4977512;28;45437;-67
2022/10/18 12:08:41;;;;;;;;;2.75;2.00;;;;;23.06;57.69;102366.69;4980507;28;45650;-67
2022/10/18 12:11:29;;;;;;;;;3.75;3.00;;;;;22.83;58.02;102361.22;4997158;28;45313;-67
2022/10/18 12:13:59;;;;;;;;;5.00;3.25;;;;;22.65;58.28;102359.97;4966573;28;45769;-68
2022/10/18 12:16:28;;;;;;;;;3.25;3.25;;;;;22.55;58.32;102352.50;4982875;28;45305;-67
2022/10/18 12:18:57;;;;;;;;;3.00;3.00;;;;;22.57;59.13;102350.56;4984694;28;46174;-67
2022/10/18 12:21:25;;;;;;;;;3.00;3.00;;;;;22.70;58.84;102349.63;4974342;28;45650;-67
2022/10/18 12:24:05;;;;;;;;;2.75;2.75;;;;;22.87;58.56;102351.88;4978725;28;45450;-67
2022/10/18 12:26:31;;;;;;;;;2.00;2.00;;;;;23.11;58.70;102345.50;4970508;28;46263;-67
2022/10/18 12:29:31;;;;;;;;;1.75;1.75;;;;;23.22;57.04;102337.41;4990187;28;45473;-67
2022/10/18 12:32:02;;;;;;;;;1.75;1.25;;;;;23.20;57.25;102342.06;5006149;28;45556;-67
2022/10/18 12:34:35;;;;;;;;;4.75;3.00;;;;;23.18;56.31;102341.34;4998306;28;45427;-67
2022/10/18 12:37:13;;;;;;;;;2.00;2.00;;;;;23.06;56.62;102347.69;5013093;28;45455;-67
2022/10/18 12:39:42;;;;;;;;;1.25;1.25;;;;;23.02;57.08;102351.66;5014630;28;46102;-68
2022/10/18 12:42:18;;;;;;;;;3.00;3.00;;;;;22.98;57.63;102353.72;4973576;28;45541;-67
2022/10/18 12:44:45;;;;;;;;;2.25;2.25;;;;;23.03;57.23;102347.94;4969261;28;45399;-66
2022/10/18 12:47:20;;;;;;;;;4.00;2.50;;;;;23.16;57.12;102350.59;4987675;28;45451;-67
2022/10/18 12:49:55;;;;;;;;;2.00;2.00;;;;;23.24;57.08;102353.56;4986674;28;45413;-67
2022/10/18 12:52:23;;;;;;;;;2.00;2.00;;;;;23.30;57.38;102353.06;4984987;28;45550;-67
2022/10/18 12:55:30;;;;;;;;;2.25;2.25;;;;;23.32;57.05;102342.09;4992841;28;45478;-67
2022/10/18 12:57:55;;;;;;;;;1.75;1.75;;;;;23.34;56.89;102340.13;4995169;28;45580;-67
2022/10/18 13:00:29;;;;;;;;;2.50;0.75;;;;;23.21;56.54;102349.22;4998691;28;46103;-66
2022/10/18 13:03:16;;;;;;;;;2.00;2.00;;;;;23.04;56.87;102352.41;4998572;28;45423;-66
2022/10/18 13:05:51;;;;;;;;;2.00;2.00;;;;;22.89;57.33;102349.03;4998779;28;45432;-66
2022/10/18 13:08:38;;;;;;;;;2.00;2.00;;;;;22.82;57.59;102339.66;5001593;28;45548;-66
2022/10/18 13:11:09;;;;;;;;;2.00;2.00;;;;;22.78;57.70;102339.03;4991326;28;47165;-66
2022/10/18 13:13:37;;;;;;;;;2.00;2.00;;;;;22.75;57.36;102336.53;4998459;28;45475;-66
2022/10/18 13:16:09;;;;;;;;;3.00;2.00;;;;;22.73;57.67;102336.66;5001081;28;46688;-66
2022/10/18 13:18:45;;;;;;;;;3.25;1.50;;;;;22.74;57.24;102338.41;4986193;28;45576;-66
2022/10/18 13:21:39;;;;;;;;;1.50;1.50;;;;;22.72;57.86;102343.09;5011536;28;47264;-66
2022/10/18 13:24:26;;;;;;;;;2.00;0.00;;;;;22.72;57.88;102344.94;5002340;28;45500;-66
2022/10/18 13:27:14;;;;;;;;;6.00;4.00;;;;;22.73;57.86;102339.38;5003255;28;45428;-66
2022/10/18 13:30:15;;;;;;;;;20.25;8.50;;;;;22.70;56.89;102338.78;4988021;28;45467;-66
2022/10/18 13:33:06;;;;;;;;;1.50;1.50;;;;;22.65;58.04;102339.13;5002547;28;47078;-66
2022/10/18 13:36:03;;;;;;;;;2.50;2.00;;;;;22.62;57.79;102337.50;4991587;28;45635;-66
2022/10/18 13:38:56;;;;;;;;;2.00;2.00;;;;;22.57;58.00;102326.16;4987288;28;45274;-66
2022/10/18 13:41:22;;;;;;;;;5.00;3.00;;;;;22.49;58.05;102336.72;4993990;28;45481;-65
2022/10/18 13:43:51;;;;;;;;;2.00;2.00;;;;;22.42;58.57;102330.03;4974082;28;47534;-66
2022/10/18 13:46:22;;;;;;;;;3.00;2.00;;;;;22.33;57.97;102334.28;4998062;28;45650;-65
2022/10/18 13:48:49;;;;;;;;;3.00;3.00;;;;;22.22;58.59;102326.97;5001719;28;45490;-66
2022/10/18 13:51:35;;;;;;;;;3.00;3.00;;;;;22.11;59.04;102329.63;5000419;28;45349;-65
2022/10/18 13:54:06;;;;;;;;;4.00;4.00;;;;;22.04;58.50;102333.78;4999352;28;47028;-65
2022/10/18 13:56:50;;;;;;;;;3.25;3.00;;;;;21.97;58.99;102331.53;4999363;28;45314;-66
2022/10/18 13:59:38;;;;;;;;;3.25;3.00;;;;;21.91;59.37;102336.53;4969452;28;45505;-66
2022/10/18 14:02:23;;;;;;;;;4.00;3.00;;;;;21.86;59.16;102331.44;4982412;28;45783;-66
2022/10/18 14:05:13;;;;;;;;;4.00;3.25;;;;;21.81;59.21;102333.63;4991063;28;45508;-66
2022/10/18 14:07:41;;;;;;;;;4.25;3.75;;;;;21.77;59.60;102333.03;4978967;28;45456;-66
2022/10/18 14:10:15;;;;;;;;;3.50;3.00;;;;;21.73;59.52;102323.41;5004516;28;45321;-65
2022/10/18 14:12:45;;;;;;;;;4.00;2.00;;;;;21.72;59.62;102331.59;4998804;28;45371;-66
2022/10/18 14:15:16;;;;;;;;;2.00;2.00;;;;;21.69;59.63;102327.28;4972451;28;46273;-65
2022/10/18 14:17:50;;;;;;;;;2.50;2.50;;;;;21.65;60.11;102323.06;5004618;28;45360;-65
2022/10/18 14:20:35;;;;;;;;;3.00;3.00;;;;;21.63;60.06;102323.19;4979486;28;45427;-66
2022/10/18 14:23:06;;;;;;;;;2.50;2.50;;;;;21.59;59.97;102331.63;4985165;28;45835;-66
2022/10/18 14:25:34;;;;;;;;;2.00;2.00;;;;;21.56;59.86;102327.34;4999145;28;45489;-67
2022/10/18 14:28:18;;;;;;;;;2.00;2.00;;;;;21.58;60.02;102329.94;5004382;28;45419;-66
2022/10/18 14:31:03;;;;;;;;;2.25;2.25;;;;;21.62;59.60;102323.31;4998402;28;45474;-66
2022/10/18 14:33:38;;;;;;;;;2.00;2.00;;;;;21.65;59.99;102320.38;4984354;28;45447;-66
2022/10/18 14:36:19;;;;;;;;;3.00;3.00;;;;;21.65;60.10;102317.66;4990349;28;46207;-66
2022/10/18 14:38:55;;;;;;;;;4.25;3.00;;;;;21.64;59.69;102315.94;5012764;28;45627;-66
2022/10/18 14:41:29;;;;;;;;;3.00;2.00;;;;;21.63;60.12;102322.34;4998976;28;45434;-67
2022/10/18 14:44:12;;;;;;;;;2.00;2.00;;;;;21.57;59.91;102317.38;5005127;28;45487;-66
2022/10/18 14:46:45;;;;;;;;;1.75;1.75;;;;;21.52;60.37;102324.94;4999617;28;45526;-66
2022/10/18 14:49:11;;;;;;;;;2.25;2.25;;;;;21.49;60.48;102318.75;4989439;28;45610;-67
2022/10/18 14:51:38;;;;;;;;;3.00;3.00;;;;;21.44;60.49;102315.50;5001588;28;45501;-65
2022/10/18 14:54:06;;;;;;;;;3.50;3.00;;;;;21.43;60.42;102319.22;4975515;28;46152;-65
2022/10/18 14:56:37;;;;;;;;;4.00;2.50;;;;;21.41;60.50;102315.75;4985222;28;46979;-65
2022/10/18 14:59:16;;;;;;;;;4.00;2.25;;;;;21.40;61.06;102315.84;4984289;28;45397;-66
2022/10/18 15:01:51;;;;;;;;;3.00;3.00;;;;;21.37;60.43;102322.34;4987823;28;45460;-65
2022/10/18 15:04:16;;;;;;;;;3.75;3.75;;;;;21.34;60.97;102316.28;4976770;28;46530;-66
2022/10/18 15:06:42;;;;;;;;;6.00;4.00;;;;;21.31;60.98;102318.25;4985130;28;66367;-65
2022/10/18 15:09:08;;;;;;;;;3.00;3.00;;;;;21.30;61.04;102315.63;4998863;28;45535;-66
2022/10/18 15:11:34;;;;;;;;;2.25;2.25;;;;;21.31;61.07;102318.25;4992419;28;45786;-66
2022/10/18 15:14:05;;;;;;;;;3.00;3.00;;;;;21.32;61.13;102314.56;4988288;28;45404;-65
2022/10/18 15:16:31;;;;;;;;;4.00;4.00;;;;;21.32;61.04;102314.56;4998896;28;46229;-65
2022/10/18 15:19:06;;;;;;;;;3.00;3.00;;;;;21.31;61.28;102310.16;5000864;28;45729;-65
2022/10/18 15:21:34;;;;;;;;;3.50;2.75;;;;;21.30;61.28;102304.81;5003113;28;45558;-65
2022/10/18 15:24:39;;;;;;;;;2.00;2.00;;;;;21.23;60.88;102299.00;5005180;28;45705;-65
2022/10/18 15:27:12;;;;;;;;;1.75;1.75;;;;;21.15;61.47;102294.13;4919483;28;46184;-65
2022/10/18 15:29:37;;;;;;;;;1.75;1.75;;;;;21.10;61.64;102296.28;4922444;28;45448;-65
2022/10/18 15:32:10;;;;;;;;;3.00;3.00;;;;;21.07;61.35;102287.56;4961496;28;45645;-66
2022/10/18 15:34:35;;;;;;;;;3.00;3.00;;;;;21.02;61.38;102289.72;4981332;28;45539;-65
2022/10/18 15:37:14;;;;;;;;;2.00;2.00;;;;;20.92;61.17;102282.25;4993360;28;46179;-65
2022/10/18 15:39:40;;;;;;;;;4.00;3.00;;;;;20.82;61.94;102283.88;5001876;28;46729;-64
2022/10/18 15:42:05;;;;;;;;;2.25;2.25;;;;;20.72;61.70;102289.06;4994542;28;65574;-65
2022/10/18 15:44:33;;;;;;;;;4.00;4.00;;;;;20.61;61.69;102287.09;4997837;28;64129;-65
2022/10/18 15:47:19;;;;;;;;;3.00;3.00;;;;;20.52;62.07;102286.84;4994567;28;47403;-66
2022/10/18 15:49:45;;;;;;;;;2.25;2.25;;;;;20.46;62.57;102282.72;5007687;28;45455;-66
2022/10/18 15:52:28;;;;;;;;;2.75;2.75;;;;;20.44;62.52;102288.25;5000094;28;45472;-65
2022/10/18 15:54:54;;;;;;;;;3.75;3.75;;;;;20.40;62.88;102283.16;4994167;28;45421;-66
2022/10/18 15:57:19;;;;;;;;;5.25;4.25;;;;;20.39;62.98;102285.00;4979058;28;48353;-66
2022/10/18 16:00:00;;;;;;;;;3.25;3.25;;;;;20.39;62.21;102274.19;4992785;28;61977;-66
2022/10/18 16:02:26;;;;;;;;;4.50;3.00;;;;;20.38;62.76;102274.31;4975014;28;45601;-66
2022/10/18 16:04:52;;;;;;;;;3.75;2.00;;;;;20.34;62.22;102270.94;4997893;28;45747;-66
2022/10/18 16:07:17;;;;;;;;;3.00;1.00;;;;;20.32;62.93;102264.75;4987923;28;46185;-66
2022/10/18 16:09:42;;;;;;;;;2.00;2.00;;;;;20.29;62.47;102265.84;4994335;28;68387;-66
2022/10/18 16:12:08;;;;;;;;;5.00;2.50;;;;;20.23;63.00;102271.66;4991182;28;64307;-66